Bean Station, Tennessee
Current Conditions -  °F | °C
As of 8:15 AM on Tuesday 21 Oct 2014 (Local Time) from KMOR Reporting Station
Clear Clear  
Wind Chill: 52°   Ceiling: Unl
Heat Index: 52°   Visibility: 10mi
Dew Point: 48°   Wind: 5mph
Humidity: 88%   Direction: 240°WSW
Pressure: 30"   Gusts: NA
Location:  36.34°N, 83.28°W
Report Text: KMOR 211215Z AUTO 24004KT 10SM CLR 11/09 A3000 RMK
Loading
Personal Weather Stations






























Interactive Weather Map
Tropical Storm Tracking
New forecast layout! Learn more

10-Day Weather Forecast

Advertisements
Track Severe Weather on mobile